Passau, Germany

11:01 AM CET on February 12, 2016 (GMT +0100)
Krennbauer | | Change Station
CLOSE
Current Station
Personal Weather Station
Location: Schardenberg, OBERSTERREICH
Elevation: 1693 ft
Nearby Weather Stations

Elev 1693 ft 48.53 °N, 13.49 °E | Updated 31 seconds ago

Light Freezing Fog
Freezing Fog
30.7 °F
Feels Like 27 °F
N
4.0
Wind Variable Wind from ENE
Gusts 5.0 mph

Today
High -- | Low -- °F
--% Chance of Precip.
Yesterday
High -- | Low -- °F
Precip. -- in
Pressure 29.68 in
Visibility 0.2 miles
Clouds
Windchill 27 °F
Dew Point 27 °F
Humidity 86%
Rainfall 0.00 in
Snow Depth Not available.
7:19 AM 5:21 PM
Waxing Crescent, 19% visible
METAR LOWL 120950Z VRB02KT 0400 R26/0600N FZFG VV002 M01/M01 Q1005 R08/19//95 NOSIG
Pressure 29.68 in
Visibility 0.2 miles
Clouds
Windchill 27 °F
Dew Point 27 °F
Humidity 86%
Rainfall 0.00 in
Snow Depth Not available.
7:19 AM 5:21 PM
Waxing Crescent, 19% visible
METAR LOWL 120950Z VRB02KT 0400 R26/0600N FZFG VV002 M01/M01 Q1005 R08/19//95 NOSIG

10-Day Weather Forecast

Almanac

Astronomy

Feb. 12, 2016 Rise Set
Actual Time
Civil Twilight
Nautical Twilight
Astronomical Twilight
Moon
Length of Visible Light
Length of Day
Tomorrow will be .
, % of the Moon is Illuminated

Today's Extremes

Country Highs Country Lows

Community

WunderPhotos

Upload Photos

1,892,287 photos uploaded!

WunderBlog® & News

Nearby

Air Quality

  Air Quality AQ Index Pollutant
Not available.

Snow Depth

Station Depth Elevation

Earthquake Activity

City Distance Mag. Time & Date
Minimum magnitude displayed is 2.5.

Coastal Water Temperatures

Place Temperature

Stations

Nearby Weather Stations

Station Location Temp. Windchill Dew Point Humidity Wind Precip. Elev Updated Type